Time;durP1;ratioP1;P1;durP2;ratioP2;P2;SDS_P1;SDS_P2;PMS_P1;PMS_P2;Temp;Humidity;BMP_temperature;BMP_pressure;BME280_temperature;BME280_humidity;BME280_pressure;Samples;Min_cycle;Max_cycle;Signal;HPM_P1;HPM_P2
2022/12/09 00:02:17;;;;;;;;;18.00;12.00;;;;;21.34;38.65;100646.31;5016177;28;45285;-76
2022/12/09 00:04:43;;;;;;;;;9.25;8.75;;;;;21.33;38.69;100649.16;5016082;28;45456;-74
2022/12/09 00:07:08;;;;;;;;;10.50;7.25;;;;;21.26;38.89;100634.00;5013615;28;45887;-74
2022/12/09 00:09:35;;;;;;;;;12.25;11.25;;;;;21.31;38.98;100641.41;5015753;28;46504;-75
2022/12/09 00:12:00;;;;;;;;;10.75;9.75;;;;;21.18;38.35;100623.53;5016034;28;45339;-75
2022/12/09 00:14:25;;;;;;;;;8.00;6.00;;;;;21.26;38.65;100625.25;5015770;28;45357;-75
2022/12/09 00:16:51;;;;;;;;;14.50;9.00;;;;;21.29;38.96;100630.16;5015690;28;45609;-74
2022/12/09 00:19:16;;;;;;;;;12.25;9.25;;;;;21.26;38.77;100628.72;5015945;28;46607;-75
2022/12/09 00:21:42;;;;;;;;;9.00;7.00;;;;;21.21;38.93;100617.84;5015808;28;45324;-76
2022/12/09 00:24:11;;;;;;;;;7.50;5.50;;;;;21.28;38.95;100634.66;5015849;28;45384;-75
2022/12/09 00:26:36;;;;;;;;;7.50;7.25;;;;;21.14;38.48;100604.53;4998212;28;45293;-75
2022/12/09 00:29:02;;;;;;;;;8.50;7.00;;;;;21.18;38.62;100619.03;5015220;28;47131;-76
2022/12/09 00:31:31;;;;;;;;;10.25;8.50;;;;;21.26;38.97;100622.63;4997875;28;45380;-73
2022/12/09 00:33:59;;;;;;;;;10.50;8.25;;;;;21.27;38.72;100622.44;5015842;28;45382;-77
2022/12/09 00:36:25;;;;;;;;;8.75;8.25;;;;;21.14;38.85;100598.41;5015808;28;45364;-76
2022/12/09 00:38:53;;;;;;;;;9.50;8.00;;;;;21.27;38.76;100617.13;5015457;28;45420;-76
2022/12/09 00:41:18;;;;;;;;;11.50;9.00;;;;;21.26;38.61;100612.03;5015597;28;45400;-76
2022/12/09 00:43:43;;;;;;;;;13.25;8.25;;;;;21.10;38.91;100581.25;5015210;28;45233;-75
2022/12/09 00:46:10;;;;;;;;;10.00;7.50;;;;;21.26;38.38;100609.38;5015617;28;45352;-76
2022/12/09 00:48:38;;;;;;;;;9.25;8.00;;;;;21.14;38.38;100590.47;5015324;28;46707;-75
2022/12/09 00:51:09;;;;;;;;;8.50;7.75;;;;;21.26;38.67;100612.84;5015276;28;45439;-75
2022/12/09 00:53:34;;;;;;;;;7.75;7.75;;;;;20.88;38.41;100555.47;5015231;28;45518;-75
2022/12/09 00:56:00;;;;;;;;;7.50;5.25;;;;;21.12;38.37;100592.47;5015385;28;45459;-75
2022/12/09 00:58:25;;;;;;;;;10.00;9.25;;;;;21.15;38.56;100602.69;4997094;28;48267;-76
2022/12/09 01:00:54;;;;;;;;;7.75;7.00;;;;;21.16;38.36;100609.63;5015118;28;45481;-75
2022/12/09 01:03:19;;;;;;;;;12.50;10.00;;;;;21.14;38.33;100604.53;5015329;28;45390;-75
2022/12/09 01:05:45;;;;;;;;;13.50;10.75;;;;;21.09;38.65;100592.81;5015213;28;45419;-75
2022/12/09 01:08:11;;;;;;;;;10.75;7.00;;;;;21.26;38.74;100620.78;5014896;28;45361;-74
2022/12/09 01:10:38;;;;;;;;;6.25;4.75;;;;;21.26;38.57;100618.13;5016661;28;45491;-75
2022/12/09 01:13:04;;;;;;;;;12.25;7.50;;;;;21.17;38.56;100601.53;5018347;28;45281;-75
2022/12/09 01:15:29;;;;;;;;;12.75;10.75;;;;;21.25;38.15;100610.38;5018545;28;45614;-74
2022/12/09 01:17:55;;;;;;;;;12.50;8.00;;;;;21.15;38.65;100597.41;5018526;28;47174;-75
2022/12/09 01:20:21;;;;;;;;;9.75;8.00;;;;;21.25;38.53;100613.84;5000604;28;45482;-76
2022/12/09 01:22:46;;;;;;;;;10.75;7.75;;;;;21.25;38.55;100607.72;5018506;28;45403;-75
2022/12/09 01:25:12;;;;;;;;;8.25;8.25;;;;;21.18;38.32;100597.06;5018690;28;45387;-75
2022/12/09 01:27:38;;;;;;;;;8.00;6.75;;;;;21.16;38.26;100589.28;5018074;28;45554;-75
2022/12/09 01:30:06;;;;;;;;;8.00;8.00;;;;;21.24;38.63;100600.78;5018520;28;45350;-75
2022/12/09 01:32:31;;;;;;;;;9.25;8.50;;;;;21.23;38.30;100605.28;5018636;28;45311;-75
2022/12/09 01:34:57;;;;;;;;;7.50;5.75;;;;;21.11;38.52;100580.25;5018243;28;45357;-74
2022/12/09 01:37:22;;;;;;;;;6.00;6.00;;;;;21.17;38.77;100593.59;5018280;28;47002;-75
2022/12/09 01:39:48;;;;;;;;;9.50;6.00;;;;;21.20;38.15;100602.16;5018254;28;45280;-76
2022/12/09 01:42:22;;;;;;;;;10.00;8.25;;;;;21.13;38.72;100586.19;5018132;28;45317;-76
2022/12/09 01:45:18;;;;;;;;;6.75;6.25;;;;;21.20;38.38;100600.34;5018302;28;45399;-75
2022/12/09 01:47:46;;;;;;;;;9.75;8.50;;;;;21.18;38.22;100592.56;5017965;28;45774;-75
2022/12/09 01:50:11;;;;;;;;;9.00;7.75;;;;;21.20;38.15;100597.69;5018148;28;45380;-75
2022/12/09 01:52:37;;;;;;;;;10.75;7.50;;;;;21.14;38.33;100580.72;5018265;28;45390;-75
2022/12/09 01:55:03;;;;;;;;;11.00;7.75;;;;;21.19;38.62;100593.41;5017711;28;45475;-76
2022/12/09 01:57:28;;;;;;;;;7.75;7.75;;;;;21.05;38.21;100574.66;5017942;28;47000;-76
2022/12/09 01:59:53;;;;;;;;;8.25;6.75;;;;;21.18;38.09;100597.06;5018045;28;45371;-75
2022/12/09 02:02:20;;;;;;;;;11.50;8.75;;;;;21.17;37.97;100593.59;5018039;28;45667;-76
2022/12/09 02:04:48;;;;;;;;;9.00;6.25;;;;;21.17;38.42;100593.59;5018042;28;45409;-75
2022/12/09 02:07:13;;;;;;;;;12.00;9.00;;;;;21.06;38.21;100571.03;5017789;28;46073;-75
2022/12/09 02:09:40;;;;;;;;;9.25;7.25;;;;;21.09;38.20;100579.59;5017193;28;45450;-75
2022/12/09 02:12:39;;;;;;;;;12.00;8.00;;;;;21.16;38.01;100589.28;5018042;28;45325;-75
2022/12/09 02:15:36;;;;;;;;;8.25;6.25;;;;;21.16;38.14;100593.75;5017806;28;45571;-76
2022/12/09 02:18:26;;;;;;;;;10.00;7.00;;;;;21.16;37.96;100591.94;5011646;28;46577;-75
2022/12/09 02:21:03;;;;;;;;;8.75;6.25;;;;;21.16;38.29;100591.09;5017153;28;45435;-75
2022/12/09 02:23:48;;;;;;;;;10.00;7.00;;;;;20.98;38.14;100563.13;4999791;28;45365;-75
2022/12/09 02:26:33;;;;;;;;;9.75;6.50;;;;;21.16;37.94;100580.53;5017645;28;45340;-76
2022/12/09 02:29:07;;;;;;;;;9.50;6.50;;;;;21.15;38.36;100571.78;5017426;28;45343;-75
2022/12/09 02:31:35;;;;;;;;;9.25;8.25;;;;;21.16;38.21;100585.81;5017564;28;45355;-76
2022/12/09 02:34:13;;;;;;;;;10.25;6.75;;;;;21.16;38.09;100570.75;5017521;28;45380;-78
2022/12/09 02:36:53;;;;;;;;;6.75;6.75;;;;;21.16;37.90;100583.16;5017707;28;45674;-77
2022/12/09 02:39:29;;;;;;;;;7.25;6.00;;;;;21.13;37.87;100572.97;5016995;28;46147;-76
2022/12/09 02:41:56;;;;;;;;;7.50;6.75;;;;;20.97;38.25;100545.66;5017603;28;45432;-76
2022/12/09 02:44:24;;;;;;;;;10.50;7.00;;;;;21.16;37.90;100578.69;5017434;28;45402;-76
2022/12/09 02:46:52;;;;;;;;;10.75;8.50;;;;;21.06;38.26;100563.09;5017274;28;45496;-75
2022/12/09 02:49:20;;;;;;;;;5.00;4.25;;;;;21.15;38.03;100581.53;5017295;28;45380;-76
2022/12/09 02:51:48;;;;;;;;;9.00;7.25;;;;;21.16;38.28;100577.88;5017218;28;45390;-75
2022/12/09 02:54:16;;;;;;;;;9.25;5.00;;;;;21.16;38.28;100578.69;5016857;28;45488;-75
2022/12/09 02:56:53;;;;;;;;;1.00;0.00;;;;;21.15;37.80;100578.91;5017116;28;45337;-76
2022/12/09 02:59:19;;;;;;;;;7.25;6.00;;;;;21.01;38.11;100554.88;5016990;28;46174;-76
2022/12/09 03:01:54;;;;;;;;;9.75;6.50;;;;;21.16;38.09;100585.81;5016653;28;45353;-75
2022/12/09 03:04:25;;;;;;;;;8.50;6.25;;;;;21.16;37.87;100569.94;5017120;28;45482;-76
2022/12/09 03:06:53;;;;;;;;;4.75;4.00;;;;;21.15;38.13;100561.19;5016826;28;45343;-75
2022/12/09 03:09:30;;;;;;;;;8.00;7.25;;;;;21.15;37.96;100563.03;5016421;28;45323;-75
2022/12/09 03:12:00;;;;;;;;;9.00;6.50;;;;;21.14;37.79;100562.19;5016282;28;45539;-74
2022/12/09 03:14:36;;;;;;;;;9.00;7.50;;;;;21.15;38.36;100557.72;5016928;28;45499;-75
2022/12/09 03:17:12;;;;;;;;;8.50;7.25;;;;;21.14;38.35;100554.25;5016894;28;45541;-76
2022/12/09 03:20:10;;;;;;;;;8.75;7.00;;;;;21.14;37.95;100545.50;5016605;28;45334;-75
2022/12/09 03:22:40;;;;;;;;;4.75;4.75;;;;;21.13;37.96;100549.97;5016360;28;45305;-76
2022/12/09 03:25:13;;;;;;;;;7.00;6.25;;;;;21.12;37.91;100545.69;5016615;28;45253;-75
2022/12/09 03:27:49;;;;;;;;;6.75;6.75;;;;;21.13;37.66;100544.66;5016659;28;45775;-75
2022/12/09 03:30:15;;;;;;;;;5.75;5.75;;;;;21.13;37.83;100538.56;5016473;28;46312;-76
2022/12/09 03:32:43;;;;;;;;;8.00;6.00;;;;;21.05;38.19;100527.06;5015524;28;45376;-76
2022/12/09 03:35:18;;;;;;;;;9.25;6.25;;;;;21.12;37.85;100542.22;5016652;28;45319;-76
2022/12/09 03:37:47;;;;;;;;;6.75;6.75;;;;;20.98;38.05;100523.47;5016220;28;45361;-75
2022/12/09 03:40:16;;;;;;;;;7.00;4.00;;;;;21.11;37.87;100544.03;5016253;28;46299;-74
2022/12/09 03:42:53;;;;;;;;;7.75;5.00;;;;;21.12;38.21;100542.22;5016324;28;45376;-74
2022/12/09 03:45:19;;;;;;;;;6.50;6.00;;;;;21.11;37.85;100545.84;5016604;28;45473;-75
2022/12/09 03:47:45;;;;;;;;;10.75;7.50;;;;;20.78;37.57;100491.44;5016210;28;45373;-74
2022/12/09 03:50:12;;;;;;;;;7.75;7.00;;;;;21.08;37.67;100533.81;5016244;28;45395;-75
2022/12/09 03:52:44;;;;;;;;;6.00;4.50;;;;;21.10;37.75;100539.75;5015982;28;45431;-75
2022/12/09 03:55:41;;;;;;;;;5.25;5.25;;;;;21.10;37.75;100544.22;5016263;28;45288;-75
2022/12/09 03:58:09;;;;;;;;;7.50;6.25;;;;;21.10;38.08;100528.34;5016139;28;45411;-75
2022/12/09 04:00:36;;;;;;;;;7.50;6.00;;;;;21.09;38.04;100530.16;5015777;28;46212;-75
2022/12/09 04:03:03;;;;;;;;;7.00;7.00;;;;;21.09;37.92;100526.69;5016008;28;45539;-75
2022/12/09 04:05:28;;;;;;;;;7.50;6.00;;;;;21.09;37.66;100527.53;5015880;28;45304;-74
2022/12/09 04:07:53;;;;;;;;;6.75;6.00;;;;;21.08;37.80;100530.38;5016000;28;45404;-76
2022/12/09 04:10:19;;;;;;;;;10.25;7.00;;;;;21.06;38.01;100514.66;5015833;28;45411;-75
2022/12/09 04:12:44;;;;;;;;;9.75;6.50;;;;;21.09;37.84;100522.22;5016020;28;45209;-75
2022/12/09 04:15:10;;;;;;;;;6.00;4.75;;;;;21.10;37.52;100525.72;5016124;28;45324;-75
2022/12/09 04:17:35;;;;;;;;;8.75;6.25;;;;;20.95;37.93;100492.91;5016098;28;45313;-75
2022/12/09 04:20:00;;;;;;;;;6.50;4.75;;;;;20.98;37.89;100502.31;5015579;28;45351;-75
2022/12/09 04:22:26;;;;;;;;;8.00;7.25;;;;;21.10;37.81;100512.47;5015924;28;45449;-74
2022/12/09 04:24:51;;;;;;;;;6.25;5.00;;;;;21.10;37.55;100515.94;5015885;28;45233;-74
2022/12/09 04:27:16;;;;;;;;;7.25;7.25;;;;;21.01;37.64;100504.63;5015876;28;45347;-75
2022/12/09 04:29:42;;;;;;;;;10.00;6.00;;;;;21.11;37.54;100522.88;5015596;28;46143;-75
2022/12/09 04:32:07;;;;;;;;;7.00;6.75;;;;;21.11;38.05;100522.88;5015789;28;45246;-74
2022/12/09 04:34:33;;;;;;;;;8.50;7.25;;;;;21.11;37.88;100519.41;5015542;28;45682;-76
2022/12/09 04:36:58;;;;;;;;;7.00;5.00;;;;;21.09;37.64;100516.13;5015854;28;45423;-76
2022/12/09 04:39:24;;;;;;;;;4.00;4.00;;;;;20.94;37.58;100493.09;4997878;28;45960;-76
2022/12/09 04:41:49;;;;;;;;;9.50;6.75;;;;;21.10;37.37;100515.94;5015656;28;45521;-75
2022/12/09 04:44:15;;;;;;;;;5.50;5.50;;;;;21.03;37.72;100507.06;5015543;28;45399;-75
2022/12/09 04:46:40;;;;;;;;;7.50;6.00;;;;;21.10;37.62;100512.47;5015806;28;45391;-74
2022/12/09 04:49:05;;;;;;;;;5.75;5.75;;;;;20.88;37.47;100481.41;5015073;28;45958;-75
2022/12/09 04:51:31;;;;;;;;;5.75;4.75;;;;;20.91;37.45;100488.16;5015465;28;45511;-74
2022/12/09 04:53:56;;;;;;;;;7.50;6.50;;;;;21.09;37.92;100513.47;5015528;28;45612;-75
2022/12/09 04:56:22;;;;;;;;;7.25;5.00;;;;;21.05;37.60;100507.75;5015552;28;45491;-75
2022/12/09 04:58:48;;;;;;;;;7.00;6.25;;;;;20.97;37.74;100503.31;5015212;28;47450;-75
2022/12/09 05:01:18;;;;;;;;;4.25;3.00;;;;;21.01;37.91;100501.13;5015227;28;45575;-75
2022/12/09 05:03:47;;;;;;;;;9.25;5.50;;;;;21.08;37.50;100506.56;5014935;28;45380;-75
2022/12/09 05:06:13;;;;;;;;;6.75;5.00;;;;;21.04;37.72;100503.44;5015144;28;45346;-75
2022/12/09 05:08:39;;;;;;;;;7.50;6.75;;;;;21.06;37.60;100504.91;5015058;28;46046;-76
2022/12/09 05:11:05;;;;;;;;;10.50;7.00;;;;;21.07;37.99;100513.66;5015187;28;45415;-75
2022/12/09 05:13:31;;;;;;;;;7.25;6.25;;;;;20.99;37.44;100501.31;5015125;28;45377;-75
2022/12/09 05:16:06;;;;;;;;;7.00;6.00;;;;;21.03;37.72;100510.56;5015282;28;45346;-75
2022/12/09 05:18:32;;;;;;;;;4.50;4.50;;;;;20.78;37.77;100471.13;5014806;28;46230;-75
2022/12/09 05:20:58;;;;;;;;;7.00;5.00;;;;;21.05;37.46;100516.47;5015102;28;45508;-76
2022/12/09 05:23:24;;;;;;;;;5.00;5.00;;;;;20.95;37.77;100494.72;5015274;28;45355;-75
2022/12/09 05:25:50;;;;;;;;;6.50;5.25;;;;;20.88;37.40;100485.88;5014869;28;45471;-75
2022/12/09 05:28:15;;;;;;;;;6.50;5.75;;;;;21.04;37.69;100508.72;5014997;28;45340;-75
2022/12/09 05:30:40;;;;;;;;;5.75;5.00;;;;;20.96;37.88;100496.38;5014984;28;45315;-75
2022/12/09 05:33:06;;;;;;;;;8.50;5.00;;;;;21.04;37.38;100511.38;5014729;28;45550;-75
2022/12/09 05:35:31;;;;;;;;;7.00;6.00;;;;;20.88;37.62;100480.59;5014986;28;45507;-75
2022/12/09 05:37:57;;;;;;;;;6.25;5.25;;;;;20.93;37.41;100500.22;5014786;28;47153;-75
2022/12/09 05:40:22;;;;;;;;;5.25;5.25;;;;;20.88;37.54;100484.06;5014897;28;45362;-75
2022/12/09 05:42:48;;;;;;;;;4.50;4.50;;;;;21.00;37.89;100507.44;5014962;28;45824;-74
2022/12/09 05:45:13;;;;;;;;;5.25;3.00;;;;;21.03;37.39;100515.00;5014925;28;45311;-76
2022/12/09 05:47:39;;;;;;;;;5.00;5.00;;;;;20.94;37.78;100499.22;5014395;28;46288;-75
2022/12/09 05:50:06;;;;;;;;;4.00;4.00;;;;;20.94;37.92;100501.88;5014833;28;45337;-74
2022/12/09 05:52:34;;;;;;;;;6.25;5.50;;;;;21.03;37.39;100510.56;5014910;28;45377;-75
2022/12/09 05:54:59;;;;;;;;;6.50;5.25;;;;;20.98;37.77;100510.25;5014631;28;45426;-75
2022/12/09 05:57:24;;;;;;;;;5.00;4.25;;;;;21.03;37.50;100510.56;5017149;28;46159;-75
2022/12/09 05:59:50;;;;;;;;;4.25;4.25;;;;;21.01;37.21;100499.34;5017845;28;45423;-75
2022/12/09 06:02:15;;;;;;;;;7.25;5.50;;;;;21.01;37.51;100501.13;5016493;28;45369;-75
2022/12/09 06:04:41;;;;;;;;;8.00;6.00;;;;;21.03;37.47;100501.78;5018006;28;45600;-76
2022/12/09 06:07:06;;;;;;;;;5.75;5.75;;;;;21.00;37.10;100495.00;5017829;28;47239;-75
2022/12/09 06:09:32;;;;;;;;;5.00;3.75;;;;;20.90;37.22;100478.59;5017745;28;45414;-75
2022/12/09 06:11:58;;;;;;;;;4.00;4.00;;;;;20.98;37.27;100494.38;5017993;28;45478;-75
2022/12/09 06:14:23;;;;;;;;;4.50;4.50;;;;;20.97;37.33;100487.47;5017713;28;45477;-75
2022/12/09 06:16:48;;;;;;;;;10.25;4.75;;;;;20.96;37.43;100485.81;4999467;28;46105;-75
2022/12/09 06:19:14;;;;;;;;;4.75;3.50;;;;;21.02;37.31;100500.16;5017848;28;45480;-74
2022/12/09 06:21:40;;;;;;;;;7.25;5.75;;;;;21.03;37.25;100496.50;5017848;28;45547;-75
2022/12/09 06:24:07;;;;;;;;;6.00;6.00;;;;;21.03;37.56;100499.16;5017903;28;45390;-75
2022/12/09 06:26:32;;;;;;;;;4.00;4.00;;;;;20.88;37.58;100478.78;5017407;28;47027;-76
2022/12/09 06:28:58;;;;;;;;;5.25;4.00;;;;;21.04;37.29;100503.44;5017412;28;45360;-76
2022/12/09 06:31:25;;;;;;;;;8.25;4.25;;;;;21.02;37.89;100501.00;5017503;28;45391;-76
2022/12/09 06:33:51;;;;;;;;;5.50;5.25;;;;;20.91;37.57;100489.00;5017618;28;45333;-77
2022/12/09 06:36:16;;;;;;;;;5.50;5.50;;;;;21.02;37.33;100502.81;5017471;28;45403;-76
2022/12/09 06:38:42;;;;;;;;;4.00;4.00;;;;;20.99;37.43;100498.66;5017460;28;45240;-76
2022/12/09 06:41:09;;;;;;;;;4.00;4.00;;;;;21.01;37.01;100507.28;5017702;28;45284;-76
2022/12/09 06:43:34;;;;;;;;;4.75;4.75;;;;;21.01;37.10;100507.28;5017650;28;45288;-76
2022/12/09 06:46:00;;;;;;;;;6.25;5.50;;;;;21.00;37.53;100513.53;5016998;28;45985;-76
2022/12/09 06:48:25;;;;;;;;;5.25;5.25;;;;;20.95;37.15;100515.88;4999413;28;45317;-76
2022/12/09 06:50:51;;;;;;;;;4.75;3.75;;;;;20.94;37.13;100514.25;5017396;28;45215;-76
2022/12/09 06:53:17;;;;;;;;;5.00;3.50;;;;;20.96;37.11;100514.91;4999486;28;45526;-76
2022/12/09 06:55:43;;;;;;;;;5.00;4.25;;;;;20.89;37.44;100503.41;4997108;28;47137;-76
2022/12/09 06:58:08;;;;;;;;;5.00;5.00;;;;;20.99;37.45;100514.53;4997244;28;45290;-76
2022/12/09 07:00:34;;;;;;;;;3.00;3.00;;;;;20.99;37.56;100511.91;4996689;28;45547;-76
2022/12/09 07:02:59;;;;;;;;;5.00;3.75;;;;;20.87;37.36;100500.91;4997236;28;45356;-76
2022/12/09 07:05:24;;;;;;;;;6.75;5.75;;;;;20.90;37.49;100502.38;4997137;28;45337;-75
2022/12/09 07:07:51;;;;;;;;;8.00;5.25;;;;;20.94;37.52;100509.81;4995866;28;45403;-76
2022/12/09 07:10:17;;;;;;;;;3.25;3.25;;;;;20.99;37.10;100521.66;5010131;28;45605;-75
2022/12/09 07:12:43;;;;;;;;;6.50;4.00;;;;;20.93;37.32;100513.44;5016837;28;45462;-75
2022/12/09 07:15:09;;;;;;;;;5.25;5.25;;;;;20.98;37.26;100522.63;5016409;28;45373;-74
2022/12/09 07:17:34;;;;;;;;;7.00;4.25;;;;;20.97;37.31;100516.56;4999066;28;46484;-75
2022/12/09 07:20:00;;;;;;;;;6.00;5.00;;;;;20.96;37.14;100518.38;5016800;28;45378;-74
2022/12/09 07:22:25;;;;;;;;;4.75;4.75;;;;;20.96;37.15;100521.00;5016920;28;45411;-74
2022/12/09 07:24:50;;;;;;;;;4.25;4.25;;;;;20.96;37.09;100522.84;5016497;28;45495;-74
2022/12/09 07:27:16;;;;;;;;;6.50;4.25;;;;;20.96;37.13;100526.31;5016699;28;45309;-76
2022/12/09 07:29:41;;;;;;;;;5.25;3.50;;;;;20.93;37.14;100523.19;5016561;28;45422;-76
2022/12/09 07:32:09;;;;;;;;;6.50;4.25;;;;;20.97;37.12;100532.41;5016696;28;45511;-75
2022/12/09 07:34:35;;;;;;;;;7.00;5.00;;;;;20.92;37.40;100527.66;5016472;28;47159;-75
2022/12/09 07:37:00;;;;;;;;;8.50;5.75;;;;;20.96;37.30;100531.59;5016174;28;45955;-75
2022/12/09 07:39:26;;;;;;;;;7.75;4.75;;;;;20.97;37.15;100537.72;5016672;28;45277;-75
2022/12/09 07:41:52;;;;;;;;;5.75;4.75;;;;;20.97;37.47;100540.34;5015794;28;45462;-74
2022/12/09 07:44:18;;;;;;;;;5.25;5.00;;;;;20.98;37.05;100543.78;5015593;28;45360;-75
2022/12/09 07:46:43;;;;;;;;;5.50;5.00;;;;;20.97;37.17;100550.94;5016528;28;45388;-76
2022/12/09 07:49:10;;;;;;;;;6.50;5.25;;;;;20.98;37.53;100549.91;5016462;28;45358;-75
2022/12/09 07:51:35;;;;;;;;;5.00;3.50;;;;;20.87;37.28;100539.78;4998528;28;45356;-75
2022/12/09 07:54:01;;;;;;;;;5.50;3.75;;;;;20.99;37.60;100546.28;5015936;28;46074;-76
2022/12/09 07:56:27;;;;;;;;;3.50;3.50;;;;;21.02;37.82;100558.34;5016331;28;45240;-75
2022/12/09 07:58:53;;;;;;;;;10.75;5.00;;;;;20.98;37.74;100549.91;5015792;28;45307;-75
2022/12/09 08:01:28;;;;;;;;;5.00;3.75;;;;;21.01;38.01;100557.53;5015844;28;45304;-75
2022/12/09 08:03:54;;;;;;;;;3.50;3.50;;;;;21.03;37.90;100557.34;5016059;28;45427;-75
2022/12/09 08:06:22;;;;;;;;;5.00;5.00;;;;;21.02;37.85;100556.53;5015744;28;45364;-75
2022/12/09 08:08:48;;;;;;;;;5.00;4.00;;;;;20.95;38.07;100539.69;5009313;28;45494;-75
2022/12/09 08:11:23;;;;;;;;;4.50;3.00;;;;;21.05;38.10;100553.50;5016105;28;45403;-75
2022/12/09 08:13:50;;;;;;;;;7.00;5.00;;;;;21.03;38.09;100552.88;5015094;28;46080;-75
2022/12/09 08:16:17;;;;;;;;;5.50;4.00;;;;;21.04;37.80;100562.47;5014495;28;45510;-75
2022/12/09 08:18:43;;;;;;;;;4.00;4.00;;;;;21.04;38.01;100569.56;5012528;28;45419;-76
2022/12/09 08:21:13;;;;;;;;;5.75;4.50;;;;;21.03;38.08;100563.44;5015204;28;45359;-76
2022/12/09 08:23:39;;;;;;;;;4.25;4.25;;;;;21.03;37.72;100562.63;4995608;28;46160;-76
2022/12/09 08:26:05;;;;;;;;;4.75;4.75;;;;;21.02;38.11;100567.13;4986814;28;45460;-76
2022/12/09 08:28:31;;;;;;;;;8.00;5.00;;;;;21.01;37.70;100567.25;5014829;28;45275;-76
2022/12/09 08:30:57;;;;;;;;;6.25;4.00;;;;;21.04;38.07;100574.84;5013876;28;45384;-76
2022/12/09 08:33:22;;;;;;;;;5.75;4.50;;;;;21.03;37.63;100575.84;5015101;28;46125;-76
2022/12/09 08:35:48;;;;;;;;;4.00;4.00;;;;;21.01;37.60;100573.41;5015080;28;45330;-76
2022/12/09 08:38:13;;;;;;;;;6.75;4.75;;;;;21.01;37.91;100568.09;5015361;28;45297;-76
2022/12/09 08:40:39;;;;;;;;;4.75;4.00;;;;;20.80;37.56;100539.66;5015486;28;45265;-75
2022/12/09 08:43:07;;;;;;;;;3.00;3.00;;;;;21.01;37.90;100576.03;5014894;28;45460;-76
2022/12/09 08:45:35;;;;;;;;;5.50;4.75;;;;;20.96;37.88;100571.25;5015287;28;45442;-76
2022/12/09 08:48:00;;;;;;;;;4.50;4.00;;;;;21.00;37.94;100579.66;5013815;28;45427;-76
2022/12/09 08:50:26;;;;;;;;;4.00;4.00;;;;;21.00;37.77;100581.50;5014944;28;46127;-74
2022/12/09 08:52:51;;;;;;;;;4.25;4.25;;;;;20.83;37.51;100553.38;5014833;28;45319;-75
2022/12/09 08:55:16;;;;;;;;;7.25;6.25;;;;;20.99;37.71;100578.03;5015134;28;45275;-76
2022/12/09 08:57:42;;;;;;;;;5.00;3.75;;;;;20.99;38.00;100585.94;5015292;28;45420;-75
2022/12/09 09:00:07;;;;;;;;;4.75;4.00;;;;;20.95;37.64;100574.06;5014942;28;45410;-76
2022/12/09 09:02:33;;;;;;;;;4.25;4.00;;;;;20.99;37.58;100585.94;5014809;28;46260;-76
2022/12/09 09:04:58;;;;;;;;;3.50;3.50;;;;;20.99;37.57;100583.31;5014758;28;45376;-76
2022/12/09 09:07:23;;;;;;;;;5.25;4.00;;;;;20.96;37.71;100588.94;5014950;28;45293;-76
2022/12/09 09:09:49;;;;;;;;;7.75;4.00;;;;;20.95;37.50;100585.47;5014627;28;45303;-76
2022/12/09 09:12:14;;;;;;;;;5.25;4.25;;;;;20.99;37.95;100591.25;5014927;28;46296;-74
2022/12/09 09:14:39;;;;;;;;;5.00;4.00;;;;;20.98;37.41;100584.31;5014738;28;45444;-76
2022/12/09 09:17:05;;;;;;;;;6.75;3.75;;;;;20.98;37.75;100584.31;5015033;28;45357;-76
2022/12/09 09:19:31;;;;;;;;;6.50;6.50;;;;;20.93;37.75;100581.38;5014830;28;45387;-76
2022/12/09 09:21:56;;;;;;;;;6.50;2.75;;;;;20.98;37.56;100588.75;5014752;28;46950;-76
2022/12/09 09:24:23;;;;;;;;;5.00;5.00;;;;;20.98;37.19;100594.88;5014146;28;45370;-75
2022/12/09 09:26:50;;;;;;;;;6.25;5.25;;;;;20.98;37.20;100594.03;5014972;28;45359;-75
2022/12/09 09:29:18;;;;;;;;;6.00;4.00;;;;;20.99;37.66;100587.78;5014770;28;45347;-75
2022/12/09 09:31:47;;;;;;;;;5.00;4.00;;;;;20.99;37.37;100579.84;5016426;28;45341;-76
2022/12/09 09:34:13;;;;;;;;;6.00;5.00;;;;;20.96;37.68;100587.13;5018061;28;45312;-75
2022/12/09 09:36:39;;;;;;;;;8.00;5.00;;;;;20.98;37.17;100584.31;5018057;28;45336;-76
2022/12/09 09:39:04;;;;;;;;;6.25;4.00;;;;;20.89;37.69;100574.81;5017799;28;45327;-75
2022/12/09 09:41:48;;;;;;;;;4.00;4.00;;;;;20.99;37.38;100593.88;5017787;28;46086;-75
2022/12/09 09:44:36;;;;;;;;;7.25;4.00;;;;;20.98;36.96;100591.41;5017826;28;45328;-75
2022/12/09 09:47:11;;;;;;;;;5.25;4.50;;;;;20.93;37.25;100589.31;5000024;28;45409;-75
2022/12/09 09:49:53;;;;;;;;;5.25;4.50;;;;;20.98;37.44;100594.03;5017872;28;45324;-76
2022/12/09 09:52:21;;;;;;;;;7.00;4.00;;;;;20.98;37.34;100596.69;5017427;28;46545;-75
2022/12/09 09:54:47;;;;;;;;;5.75;5.00;;;;;20.85;37.51;100572.50;5017367;28;45268;-76
2022/12/09 09:57:24;;;;;;;;;5.00;4.00;;;;;20.95;37.39;100585.47;5017852;28;45346;-76
2022/12/09 10:00:10;;;;;;;;;7.00;7.00;;;;;20.95;37.01;100593.41;5017721;28;45436;-77
2022/12/09 10:02:36;;;;;;;;;6.75;5.00;;;;;20.96;37.15;100596.88;5006142;28;47150;-75
2022/12/09 10:05:22;;;;;;;;;7.25;6.25;;;;;20.94;37.30;100591.78;5017174;28;45406;-75
2022/12/09 10:07:53;;;;;;;;;8.25;5.25;;;;;20.95;37.14;100590.75;5017390;28;45276;-75
2022/12/09 10:10:42;;;;;;;;;7.25;4.00;;;;;20.86;37.42;100583.91;5017338;28;45377;-75
2022/12/09 10:13:30;;;;;;;;;7.25;4.25;;;;;20.93;37.17;100595.41;5017316;28;46471;-75
2022/12/09 10:16:19;;;;;;;;;7.25;6.00;;;;;20.92;37.17;100596.41;5017531;28;45288;-75
2022/12/09 10:19:16;;;;;;;;;5.00;5.00;;;;;20.92;37.26;100593.75;5017077;28;45386;-75
2022/12/09 10:21:44;;;;;;;;;4.75;4.75;;;;;20.80;37.32;100577.50;5017584;28;45371;-76
2022/12/09 10:24:12;;;;;;;;;5.25;5.25;;;;;20.91;36.92;100589.50;5016706;28;46379;-75
2022/12/09 10:26:38;;;;;;;;;7.50;5.75;;;;;20.91;37.04;100588.66;5017455;28;45331;-76
2022/12/09 10:29:17;;;;;;;;;6.00;4.50;;;;;20.75;37.48;100569.28;5017422;28;45288;-76
2022/12/09 10:31:42;;;;;;;;;7.25;5.00;;;;;20.90;36.92;100587.00;5017381;28;45443;-75
2022/12/09 10:34:09;;;;;;;;;7.00;4.75;;;;;20.79;37.08;100569.78;5017057;28;46095;-76
2022/12/09 10:36:36;;;;;;;;;7.75;6.00;;;;;20.78;36.82;100563.66;5017242;28;45469;-76
2022/12/09 10:39:02;;;;;;;;;6.25;6.25;;;;;20.91;36.71;100583.38;5015522;28;45432;-76
2022/12/09 10:44:20;;;;;;;;;8.75;5.00;;;;;20.90;37.03;100576.44;5016809;28;45841;-75
2022/12/09 10:46:46;;;;;;;;;7.50;6.50;;;;;20.90;36.71;100576.44;5015726;28;45856;-76
2022/12/09 10:49:20;;;;;;;;;8.00;8.00;;;;;20.88;36.93;100568.69;5015735;28;45354;-76
2022/12/09 10:51:51;;;;;;;;;6.75;5.00;;;;;20.74;36.73;100551.78;5016771;28;45347;-76
2022/12/09 10:54:43;;;;;;;;;7.50;5.50;;;;;20.91;36.82;100570.16;5016468;28;45994;-76
2022/12/09 10:57:11;;;;;;;;;7.00;5.25;;;;;20.92;36.97;100569.16;4996828;28;45352;-76
2022/12/09 10:59:38;;;;;;;;;5.50;5.00;;;;;20.92;36.72;100571.81;4996909;28;45590;-75
2022/12/09 11:02:06;;;;;;;;;8.00;6.00;;;;;20.92;36.93;100569.16;4996854;28;45520;-75
2022/12/09 11:04:33;;;;;;;;;8.75;6.25;;;;;20.65;36.54;100518.50;4996674;28;46320;-75
2022/12/09 11:07:10;;;;;;;;;6.25;6.25;;;;;20.93;36.66;100568.16;4996610;28;45467;-75
2022/12/09 11:09:38;;;;;;;;;9.75;7.00;;;;;20.93;36.60;100563.69;5004250;28;45410;-76
2022/12/09 11:12:11;;;;;;;;;7.00;5.25;;;;;20.93;36.68;100562.84;5016240;28;45440;-75
2022/12/09 11:14:40;;;;;;;;;6.25;6.25;;;;;20.92;36.60;100564.66;5016452;28;46078;-75
2022/12/09 11:17:17;;;;;;;;;7.25;5.50;;;;;20.92;36.60;100564.66;5015946;28;45330;-75
2022/12/09 11:19:49;;;;;;;;;6.00;6.00;;;;;20.92;36.70;100566.53;5016537;28;45382;-75
2022/12/09 11:22:37;;;;;;;;;7.25;5.00;;;;;20.92;36.69;100566.53;5000506;28;45323;-75
2022/12/09 11:25:25;;;;;;;;;6.00;6.00;;;;;20.91;36.76;100559.56;5016560;28;47421;-75
2022/12/09 11:28:00;;;;;;;;;6.50;6.00;;;;;20.90;36.63;100566.69;5016495;28;45517;-75
2022/12/09 11:30:33;;;;;;;;;10.00;6.25;;;;;20.90;36.58;100561.38;5016791;28;45369;-75
2022/12/09 11:33:14;;;;;;;;;10.00;7.00;;;;;20.89;36.41;100559.75;5016531;28;45314;-76
2022/12/09 11:35:42;;;;;;;;;8.75;8.00;;;;;20.90;36.57;100560.56;5016124;28;47255;-75